UNEE/KEJ METAR and TAF weather

Enter ICAO airport designator
Station Type Date Time Source
UNEE METAR 2020/08/07 11:30 UTC NOAA

UNEE 071130Z 33001MPS 9999 SCT036CB 23/15 Q1011 R23/CLRD60 NOSIG RMK QFE735


Station Type Date Time Source
UNEE Decoded METAR 2020/08/07 11:30 UTC NOAA

Kemerovo, Russia (UNEE) 55-19-48N 086-04-48E
Aug 07, 2020 - 07:30 AM EDT / 2020.08.07 1130 UTC
Wind: from the NNW (330 degrees) at 2 MPH (2 KT):0
Visibility: greater than 7 mile(s):0
Sky conditions: partly cloudy
Weather: Cumulonimbus clouds observed
Temperature: 73 F (23 C)
Dew Point: 59 F (15 C)
Relative Humidity: 60%
Pressure (altimeter): 29.85 in. Hg (1011 hPa)
ob: UNEE 071130Z 33001MPS 9999 SCT036CB 23/15 Q1011 R23/CLRD60 NOSIG RMK QFE735
cycle: 11

Station Type Date Time Source
UNEE TAF 2020/08/07 12:21 UTC NOAA

TAF UNEE 071100Z 0712/0812 36003G08MPS 9999 SCT030CB
TEMPO 0712/0715 -TSRA BKN017CB
BECMG 0803/0805 06003G08MPS

Example: see airport list